createdAt,value
2018-06-14T00:00:54.159Z,97990.00
2018-06-14T00:03:22.942Z,97985.82
2018-06-14T00:05:51.917Z,97989.73
2018-06-14T00:08:20.847Z,97984.36
2018-06-14T00:10:49.805Z,97981.18
2018-06-14T00:13:18.949Z,97988.20
2018-06-14T00:15:47.791Z,97987.80
2018-06-14T00:18:16.760Z,97996.55
2018-06-14T00:20:45.512Z,97993.42
2018-06-14T00:23:14.186Z,97989.91
2018-06-14T00:25:43.512Z,97986.91
2018-06-14T00:28:12.462Z,97981.58
2018-06-14T00:30:41.548Z,97995.79
2018-06-14T00:33:10.534Z,97994.59
2018-06-14T00:35:41.143Z,97985.31
2018-06-14T00:38:10.308Z,97985.61
2018-06-14T00:40:39.430Z,97987.74
2018-06-14T00:43:08.203Z,97991.38
2018-06-14T00:45:37.206Z,97990.09
2018-06-14T00:48:06.124Z,97992.30
2018-06-14T00:50:35.051Z,97992.28
2018-06-14T00:53:03.963Z,97992.11
2018-06-14T00:55:32.946Z,97992.40
2018-06-14T00:58:01.719Z,97995.29
2018-06-14T01:00:30.806Z,97988.33
2018-06-14T01:02:59.645Z,97992.30
2018-06-14T01:05:28.794Z,97988.08
2018-06-14T01:07:57.794Z,97985.44
2018-06-14T01:10:26.589Z,97993.18
2018-06-14T01:12:55.442Z,97992.28
2018-06-14T01:15:24.294Z,97991.38
2018-06-14T01:17:53.138Z,97987.08
2018-06-14T01:20:22.046Z,97980.78
2018-06-14T01:22:50.954Z,97982.16
2018-06-14T01:25:19.857Z,97985.92
2018-06-14T01:27:49.004Z,97984.58
2018-06-14T01:30:17.817Z,97976.50
2018-06-14T01:32:46.746Z,97981.23
2018-06-14T01:35:15.623Z,97976.70
2018-06-14T01:37:55.466Z,97979.68
2018-06-14T01:40:24.392Z,97979.66
2018-06-14T01:42:53.209Z,97966.93
2018-06-14T01:45:22.966Z,97964.22
2018-06-14T01:47:52.056Z,97960.39
2018-06-14T01:50:20.828Z,97954.99
2018-06-14T01:52:49.716Z,97954.59
2018-06-14T01:55:18.521Z,97954.91
2018-06-14T01:57:47.382Z,97953.72
2018-06-14T02:00:16.199Z,97953.16
2018-06-14T02:02:44.968Z,97949.84
2018-06-14T02:05:13.846Z,97950.00
2018-06-14T02:07:42.966Z,97940.16
2018-06-14T02:10:11.831Z,97941.23
2018-06-14T02:12:40.689Z,97940.36
2018-06-14T02:15:09.566Z,97939.64
2018-06-14T02:17:38.467Z,97941.61
2018-06-14T02:20:07.302Z,97944.23
2018-06-14T02:22:36.257Z,97947.52
2018-06-14T02:25:05.184Z,97948.30
2018-06-14T02:27:34.039Z,97950.33
2018-06-14T02:30:02.871Z,97953.41
2018-06-14T02:32:31.689Z,97946.16
2018-06-14T02:35:00.667Z,97949.84
2018-06-14T02:37:29.771Z,97955.72
2018-06-14T02:39:58.704Z,97953.46
2018-06-14T02:42:27.457Z,97958.66
2018-06-14T02:44:56.670Z,97955.08
2018-06-14T02:47:25.418Z,97953.31
2018-06-14T02:49:54.327Z,97953.95
2018-06-14T02:52:23.146Z,97961.70
2018-06-14T02:54:51.990Z,97960.00
2018-06-14T02:57:20.986Z,97961.61
2018-06-14T02:59:49.881Z,97959.91
2018-06-14T03:02:18.842Z,97962.91
2018-06-14T03:04:47.759Z,97964.20
2018-06-14T03:07:21.837Z,97972.89
2018-06-14T03:09:50.648Z,97971.53
2018-06-14T03:12:19.497Z,97968.90
2018-06-14T03:14:49.681Z,97970.25
2018-06-14T03:17:20.118Z,97969.81
2018-06-14T03:19:50.011Z,97970.17
2018-06-14T03:22:19.296Z,97971.06
2018-06-14T03:24:48.398Z,97972.53
2018-06-14T03:27:17.727Z,97979.22
2018-06-14T03:29:46.869Z,97974.45
2018-06-14T03:32:15.922Z,97971.23
2018-06-14T03:34:44.695Z,97972.91
2018-06-14T03:37:13.797Z,97979.77
2018-06-14T03:39:42.849Z,97978.36
2018-06-14T03:42:14.895Z,97983.28
2018-06-14T03:44:44.437Z,97984.13
2018-06-14T03:47:13.511Z,97979.36
2018-06-14T03:49:43.282Z,97984.64
2018-06-14T03:52:16.551Z,97985.27
2018-06-14T03:54:45.357Z,97983.91
2018-06-14T03:57:14.779Z,97990.87
2018-06-14T03:59:43.690Z,97986.56
2018-06-14T04:02:12.965Z,97991.38
2018-06-14T04:04:41.746Z,97995.95
2018-06-14T04:07:10.666Z,98006.62
2018-06-14T04:09:39.633Z,98006.11
2018-06-14T04:12:08.448Z,98009.11
2018-06-14T04:14:37.328Z,98003.03
2018-06-14T04:17:06.224Z,98007.42
2018-06-14T04:19:34.984Z,98009.22
2018-06-14T04:22:03.942Z,98007.34
2018-06-14T04:24:32.782Z,98011.55
2018-06-14T04:27:01.664Z,98015.45
2018-06-14T04:29:30.497Z,98013.52
2018-06-14T04:31:59.193Z,98010.11
2018-06-14T04:34:28.098Z,98016.47
2018-06-14T04:36:56.938Z,98016.52
2018-06-14T04:39:25.701Z,98020.04
2018-06-14T04:41:54.628Z,98016.42
2018-06-14T04:44:23.393Z,98023.38
2018-06-14T04:46:52.138Z,98020.14
2018-06-14T04:49:21.104Z,98015.67
2018-06-14T04:51:49.938Z,98017.98
2018-06-14T04:54:18.899Z,98012.10
2018-06-14T04:56:47.874Z,98010.01
2018-06-14T04:59:16.658Z,98014.45
2018-06-14T05:01:45.481Z,98012.50
2018-06-14T05:04:14.879Z,98006.55
2018-06-14T05:06:44.282Z,98012.67
2018-06-14T05:09:14.568Z,98010.00
2018-06-14T05:11:43.238Z,98008.98
2018-06-14T05:14:12.142Z,98005.30
2018-06-14T05:16:40.961Z,98010.07
2018-06-14T05:19:09.839Z,98011.42
2018-06-14T05:21:38.747Z,98015.67
2018-06-14T05:24:07.719Z,98013.34
2018-06-14T05:26:36.630Z,98012.52
2018-06-14T05:29:06.180Z,98008.30
2018-06-14T05:31:35.357Z,98011.90
2018-06-14T05:34:04.420Z,98004.55
2018-06-14T05:36:33.293Z,98014.64
2018-06-14T05:39:02.222Z,98005.05
2018-06-14T05:41:31.140Z,98002.94
2018-06-14T05:44:00.098Z,98007.64
2018-06-14T05:46:29.130Z,98008.24
2018-06-14T05:48:58.228Z,98009.00
2018-06-14T05:51:27.229Z,98013.27
2018-06-14T05:53:56.413Z,98006.98
2018-06-14T05:56:25.435Z,98019.98
2018-06-14T05:58:54.669Z,98016.16
2018-06-14T06:01:23.614Z,98019.95
2018-06-14T06:03:52.377Z,98016.61
2018-06-14T06:06:21.414Z,98021.06
2018-06-14T06:08:50.327Z,98019.81
2018-06-14T06:11:19.074Z,98010.59
2018-06-14T06:13:47.886Z,98018.77
2018-06-14T06:16:16.690Z,98015.41
2018-06-14T06:18:45.571Z,98012.16
2018-06-14T06:21:14.352Z,98012.41
2018-06-14T06:23:43.360Z,98010.18
2018-06-14T06:26:12.296Z,98008.34
2018-06-14T06:28:41.977Z,98007.33
2018-06-14T06:31:10.868Z,98012.89
2018-06-14T06:33:40.155Z,98011.55
2018-06-14T06:36:09.035Z,98011.58
2018-06-14T06:38:37.958Z,98006.69
2018-06-14T06:41:07.110Z,98005.10
2018-06-14T06:43:35.944Z,98008.14
2018-06-14T06:46:05.122Z,98010.44
2018-06-14T06:48:33.861Z,98007.92
2018-06-14T06:51:02.775Z,98005.64
2018-06-14T06:53:31.663Z,98009.81
2018-06-14T06:56:00.652Z,98012.45
2018-06-14T06:58:29.724Z,98006.66
2018-06-14T07:00:58.820Z,98008.81
2018-06-14T07:03:27.866Z,98007.92
2018-06-14T07:05:56.896Z,98010.38
2018-06-14T07:08:25.618Z,98002.63
2018-06-14T07:10:54.612Z,98006.00
2018-06-14T07:13:23.659Z,98005.98
2018-06-14T07:15:52.759Z,98003.54
2018-06-14T07:18:21.819Z,98004.26
2018-06-14T07:20:51.229Z,98008.38
2018-06-14T07:23:20.529Z,98005.92
2018-06-14T07:25:49.511Z,98006.89
2018-06-14T07:28:18.508Z,98006.85
2018-06-14T07:30:47.483Z,98000.31
2018-06-14T07:33:16.574Z,98005.42
2018-06-14T07:35:45.410Z,98001.48
2018-06-14T07:38:14.533Z,97996.58
2018-06-14T07:40:43.401Z,97996.81
2018-06-14T07:43:12.362Z,97998.59
2018-06-14T07:45:41.368Z,98004.14
2018-06-14T07:48:10.253Z,98005.38
2018-06-14T07:50:39.090Z,98001.53
2018-06-14T07:53:08.116Z,98001.10
2018-06-14T07:55:37.050Z,98003.83
2018-06-14T07:58:06.043Z,98007.92
2018-06-14T08:00:35.126Z,98004.53
2018-06-14T08:03:04.063Z,98006.44
2018-06-14T08:05:33.285Z,98008.97
2018-06-14T08:08:02.174Z,98008.05
2018-06-14T08:10:31.182Z,98007.83
2018-06-14T08:13:00.704Z,98006.36
2018-06-14T08:15:29.554Z,98007.02
2018-06-14T08:17:58.303Z,98007.68
2018-06-14T08:20:27.385Z,98010.67
2018-06-14T08:22:56.242Z,98008.86
2018-06-14T08:25:25.206Z,98011.11
2018-06-14T08:27:54.233Z,98014.17
2018-06-14T08:30:23.240Z,98010.00
2018-06-14T08:32:52.023Z,98019.48
2018-06-14T08:35:20.909Z,98026.36
2018-06-14T08:37:50.059Z,98027.16
2018-06-14T08:40:18.899Z,98030.55
2018-06-14T08:42:47.914Z,98028.35
2018-06-14T08:45:16.790Z,98026.80
2018-06-14T08:47:45.478Z,98033.98
2018-06-14T08:50:14.273Z,98031.77
2018-06-14T08:52:43.593Z,98029.73
2018-06-14T08:55:12.958Z,98030.41
2018-06-14T08:57:42.340Z,98030.89
2018-06-14T09:00:11.395Z,98019.31
2018-06-14T09:02:40.405Z,98026.56
2018-06-14T09:05:09.413Z,98027.27
2018-06-14T09:07:39.029Z,98026.56
2018-06-14T09:10:07.916Z,98031.34
2018-06-14T09:12:36.974Z,98026.75
2018-06-14T09:15:09.647Z,98019.98
2018-06-14T09:17:38.521Z,98020.36
2018-06-14T09:20:24.779Z,98029.24
2018-06-14T09:22:53.875Z,98025.78
2018-06-14T09:25:23.137Z,98022.81
2018-06-14T09:27:52.094Z,98016.36
2018-06-14T09:30:20.990Z,98019.53
2018-06-14T09:32:49.793Z,98023.02
2018-06-14T09:35:18.622Z,98023.38
2018-06-14T09:37:47.735Z,98027.91
2018-06-14T09:40:16.606Z,98028.42
2018-06-14T09:42:46.171Z,98024.19
2018-06-14T09:45:15.214Z,98028.63
2018-06-14T09:47:43.992Z,98028.97
2018-06-14T09:50:12.756Z,98022.69
2018-06-14T09:52:41.610Z,98022.38
2018-06-14T09:55:10.556Z,98024.23
2018-06-14T09:57:39.409Z,98027.89
2018-06-14T10:00:09.328Z,98025.62
2018-06-14T10:02:38.019Z,98028.40
2018-06-14T10:05:06.950Z,98023.77
2018-06-14T10:07:35.818Z,98027.45
2018-06-14T10:10:04.857Z,98024.36
2018-06-14T10:12:35.342Z,98024.25
2018-06-14T10:15:05.749Z,98027.97
2018-06-14T10:17:35.178Z,98025.34
2018-06-14T10:20:04.196Z,98027.25
2018-06-14T10:22:32.907Z,98025.23
2018-06-14T10:25:01.638Z,98018.17
2018-06-14T10:27:30.447Z,98014.41
2018-06-14T10:29:59.324Z,98009.95
2018-06-14T10:32:28.132Z,98006.89
2018-06-14T10:34:57.858Z,98015.21
2018-06-14T10:37:26.647Z,98006.82
2018-06-14T10:39:55.683Z,98003.66
2018-06-14T10:42:24.504Z,97999.92
2018-06-14T10:44:53.380Z,98000.42
2018-06-14T10:47:22.318Z,98007.08
2018-06-14T10:49:51.186Z,98000.53
2018-06-14T10:52:20.238Z,97996.93
2018-06-14T10:54:49.246Z,97997.30
2018-06-14T10:57:18.439Z,98003.48
2018-06-14T10:59:47.245Z,97993.23
2018-06-14T11:02:15.984Z,97987.94
2018-06-14T11:04:44.853Z,97993.69
2018-06-14T11:07:13.806Z,97996.09
2018-06-14T11:09:42.521Z,97986.89
2018-06-14T11:12:11.422Z,97988.00
2018-06-14T11:14:40.600Z,97981.56
2018-06-14T11:17:09.518Z,97981.80
2018-06-14T11:19:38.253Z,97985.08
2018-06-14T11:22:07.357Z,97980.84
2018-06-14T11:24:36.215Z,97978.60
2018-06-14T11:27:05.223Z,97974.21
2018-06-14T11:29:36.584Z,97976.77
2018-06-14T11:32:05.605Z,97974.02
2018-06-14T11:34:34.395Z,97970.52
2018-06-14T11:37:03.581Z,97970.73
2018-06-14T11:39:32.457Z,97982.63
2018-06-14T11:42:01.578Z,97973.95
2018-06-14T11:44:30.414Z,97971.95
2018-06-14T11:46:59.329Z,97972.14
2018-06-14T11:49:28.354Z,97971.80
2018-06-14T11:51:57.158Z,97961.27
2018-06-14T11:54:26.092Z,97961.76
2018-06-14T11:56:55.074Z,97956.77
2018-06-14T11:59:24.013Z,97955.59
2018-06-14T12:01:52.825Z,97951.09
2018-06-14T12:04:21.763Z,97950.50
2018-06-14T12:06:50.568Z,97948.10
2018-06-14T12:09:19.676Z,97945.89
2018-06-14T12:11:48.473Z,97941.43
2018-06-14T12:14:17.679Z,97945.89
2018-06-14T12:16:46.481Z,97942.45
2018-06-14T12:19:15.399Z,97943.56
2018-06-14T12:21:44.395Z,97938.41
2018-06-14T12:24:13.209Z,97930.78
2018-06-14T12:26:42.028Z,97936.90
2018-06-14T12:29:10.903Z,97934.34
2018-06-14T12:31:40.247Z,97939.60
2018-06-14T12:34:10.062Z,97933.05
2018-06-14T12:36:38.834Z,97933.36
2018-06-14T12:39:08.958Z,97938.66
2018-06-14T12:41:38.042Z,97933.41
2018-06-14T12:44:07.010Z,97933.84
2018-06-14T12:46:35.910Z,97935.83
2018-06-14T12:49:04.829Z,97926.64
2018-06-14T12:51:34.301Z,97919.93
2018-06-14T12:54:04.314Z,97918.58
2018-06-14T12:56:33.327Z,97915.58
2018-06-14T12:59:02.644Z,97916.14
2018-06-14T13:01:31.819Z,97913.03
2018-06-14T13:04:00.667Z,97912.36
2018-06-14T13:06:29.398Z,97911.38
2018-06-14T13:08:58.517Z,97906.66
2018-06-14T13:11:27.343Z,97911.23
2018-06-14T13:13:56.772Z,97912.76
2018-06-14T13:16:25.496Z,97913.09
2018-06-14T13:18:54.258Z,97907.69
2018-06-14T13:21:23.690Z,97905.64
2018-06-14T13:23:52.771Z,97910.77
2018-06-14T13:26:21.542Z,97904.66
2018-06-14T13:28:50.767Z,97903.67
2018-06-14T13:31:19.530Z,97902.98
2018-06-14T13:33:48.429Z,97905.30
2018-06-14T13:36:17.326Z,97900.32
2018-06-14T13:38:46.364Z,97903.61
2018-06-14T13:41:15.285Z,97902.25
2018-06-14T13:43:44.117Z,97890.13
2018-06-14T13:46:13.211Z,97887.27
2018-06-14T13:48:42.207Z,97889.83
2018-06-14T13:51:11.271Z,97888.06
2018-06-14T13:53:40.167Z,97885.19
2018-06-14T13:56:09.791Z,97889.64
2018-06-14T13:58:38.801Z,97875.75
2018-06-14T14:01:08.958Z,97879.56
2018-06-14T14:03:37.855Z,97874.32
2018-06-14T14:06:06.830Z,97875.49
2018-06-14T14:08:37.128Z,97864.64
2018-06-14T14:11:06.110Z,97870.62
2018-06-14T14:13:35.126Z,97871.62
2018-06-14T14:16:04.017Z,97864.64
2018-06-14T14:18:32.800Z,97865.09
2018-06-14T14:21:01.692Z,97864.30
2018-06-14T14:23:30.504Z,97865.72
2018-06-14T14:25:59.381Z,97861.49
2018-06-14T14:28:28.436Z,97848.44
2018-06-14T14:30:57.347Z,97846.45
2018-06-14T14:33:26.209Z,97853.32
2018-06-14T14:35:55.058Z,97850.66
2018-06-14T14:38:24.246Z,97855.95
2018-06-14T14:40:53.090Z,97855.61
2018-06-14T14:43:22.122Z,97847.22
2018-06-14T14:45:51.120Z,97848.84
2018-06-14T14:48:20.002Z,97846.89
2018-06-14T14:50:49.075Z,97847.73
2018-06-14T14:53:17.955Z,97844.63
2018-06-14T14:55:46.882Z,97845.22
2018-06-14T14:58:15.754Z,97845.09
2018-06-14T15:00:44.762Z,97843.31
2018-06-14T15:03:13.538Z,97843.89
2018-06-14T15:05:42.430Z,97846.80
2018-06-14T15:08:11.395Z,97839.23
2018-06-14T15:10:40.142Z,97843.41
2018-06-14T15:13:09.177Z,97847.14
2018-06-14T15:15:38.110Z,97842.81
2018-06-14T15:18:07.545Z,97846.48
2018-06-14T15:20:36.406Z,97850.85
2018-06-14T15:23:05.716Z,97846.16
2018-06-14T15:25:34.525Z,97845.40
2018-06-14T15:28:03.330Z,97837.97
2018-06-14T15:30:32.149Z,97849.14
2018-06-14T15:33:01.095Z,97837.67
2018-06-14T15:35:29.860Z,97841.52
2018-06-14T15:37:58.758Z,97840.70
2018-06-14T15:40:27.846Z,97838.53
2018-06-14T15:42:56.682Z,97830.29
2018-06-14T15:45:25.574Z,97832.95
2018-06-14T15:47:54.871Z,97829.56
2018-06-14T15:50:24.090Z,97836.16
2018-06-14T15:52:53.182Z,97828.61
2018-06-14T15:56:42.781Z,97831.44
2018-06-14T15:59:13.055Z,97817.62
2018-06-14T16:01:41.901Z,97833.56
2018-06-14T16:04:11.015Z,97827.29
2018-06-14T16:06:39.864Z,97826.38
2018-06-14T16:09:10.061Z,97818.83
2018-06-14T16:11:38.856Z,97817.11
2018-06-14T16:14:08.026Z,97824.34
2018-06-14T16:16:36.945Z,97816.17
2018-06-14T16:19:05.990Z,97812.83
2018-06-14T16:21:35.195Z,97812.18
2018-06-14T16:24:04.149Z,97812.38
2018-06-14T16:26:33.157Z,97815.73
2018-06-14T16:29:02.031Z,97821.14
2018-06-14T16:31:30.864Z,97816.80
2018-06-14T16:33:59.764Z,97813.47
2018-06-14T16:36:28.936Z,97812.13
2018-06-14T16:38:57.879Z,97813.05
2018-06-14T16:41:26.686Z,97820.81
2018-06-14T16:43:55.964Z,97816.94
2018-06-14T16:46:24.895Z,97810.20
2018-06-14T16:48:53.817Z,97807.16
2018-06-14T16:51:22.758Z,97809.35
2018-06-14T16:53:51.427Z,97807.27
2018-06-14T16:56:20.162Z,97807.16
2018-06-14T16:58:49.002Z,97807.11
2018-06-14T17:01:17.973Z,97802.66
2018-06-14T17:03:47.335Z,97799.28
2018-06-14T17:06:16.249Z,97803.73
2018-06-14T17:08:44.935Z,97799.94
2018-06-14T17:11:13.894Z,97802.85
2018-06-14T17:13:42.885Z,97801.72
2018-06-14T17:16:11.744Z,97800.20
2018-06-14T17:18:40.701Z,97807.13
2018-06-14T17:21:09.650Z,97809.70
2018-06-14T17:23:38.694Z,97801.95
2018-06-14T17:26:07.447Z,97804.91
2018-06-14T17:28:36.473Z,97803.92
2018-06-14T17:31:05.541Z,97805.17
2018-06-14T17:33:34.361Z,97806.30
2018-06-14T17:36:03.167Z,97807.45
2018-06-14T17:38:32.152Z,97808.81
2018-06-14T17:41:01.312Z,97813.42
2018-06-14T17:43:30.399Z,97814.41
2018-06-14T17:45:59.905Z,97814.73
2018-06-14T17:48:29.242Z,97817.38
2018-06-14T17:50:58.520Z,97820.87
2018-06-14T17:53:27.999Z,97821.63
2018-06-14T17:55:57.234Z,97823.88
2018-06-14T17:58:26.066Z,97819.78
2018-06-14T18:00:55.152Z,97820.92
2018-06-14T18:03:24.161Z,97830.05
2018-06-14T18:05:53.286Z,97835.56
2018-06-14T18:08:22.251Z,97836.54
2018-06-14T18:10:51.326Z,97839.41
2018-06-14T18:13:20.390Z,97840.56
2018-06-14T18:15:49.082Z,97843.61
2018-06-14T18:18:18.205Z,97848.91
2018-06-14T18:20:47.096Z,97848.48
2018-06-14T18:23:16.301Z,97847.98
2018-06-14T18:25:45.274Z,97845.38
2018-06-14T18:28:14.346Z,97851.27
2018-06-14T18:30:43.482Z,97855.47
2018-06-14T18:33:12.374Z,97845.73
2018-06-14T18:35:41.401Z,97853.36
2018-06-14T18:38:10.337Z,97860.25
2018-06-14T18:40:39.419Z,97858.98
2018-06-14T18:43:08.357Z,97866.09
2018-06-14T18:45:37.382Z,97872.72
2018-06-14T18:48:06.987Z,97867.44
2018-06-14T18:50:35.983Z,97870.05
2018-06-14T18:53:05.252Z,97873.34
2018-06-14T18:55:34.208Z,97875.50
2018-06-14T18:58:03.163Z,97876.39
2018-06-14T19:00:32.036Z,97878.74
2018-06-14T19:03:00.989Z,97880.97
2018-06-14T19:05:29.928Z,97882.00
2018-06-14T19:07:59.107Z,97882.89
2018-06-14T19:10:28.153Z,97886.95
2018-06-14T19:12:57.095Z,97890.63
2018-06-14T19:15:26.114Z,97890.55
2018-06-14T19:17:54.882Z,97891.75
2018-06-14T19:20:24.534Z,97895.77
2018-06-14T19:22:53.368Z,97897.36
2018-06-14T19:25:22.845Z,97901.34
2018-06-14T19:27:52.033Z,97909.77
2018-06-14T19:30:20.947Z,97910.81
2018-06-14T19:32:49.627Z,97915.59
2018-06-14T19:35:18.606Z,97916.52
2018-06-14T19:37:47.469Z,97918.64
2018-06-14T19:40:16.457Z,97923.98
2018-06-14T19:42:45.354Z,97924.20
2018-06-14T19:45:14.177Z,97936.63
2018-06-14T19:47:43.007Z,97936.78
2018-06-14T19:50:12.542Z,97945.58
2018-06-14T19:52:41.405Z,97944.55
2018-06-14T19:55:10.185Z,97941.49
2018-06-14T19:57:39.076Z,97943.43
2018-06-14T20:00:07.940Z,97950.37
2018-06-14T20:02:37.498Z,97942.77
2018-06-14T20:05:06.473Z,97944.14
2018-06-14T20:07:35.395Z,97945.95
2018-06-14T20:10:04.463Z,97948.21
2018-06-14T20:12:33.385Z,97951.75
2018-06-14T20:15:02.291Z,97948.67
2018-06-14T20:17:31.330Z,97952.77
2018-06-14T20:20:01.894Z,97950.95
2018-06-14T20:22:30.832Z,97955.84
2018-06-14T20:24:59.754Z,97951.21
2018-06-14T20:27:28.725Z,97959.17
2018-06-14T20:29:57.790Z,97955.57
2018-06-14T20:32:29.676Z,97965.34
2018-06-14T20:34:58.769Z,97969.23
2018-06-14T20:37:27.614Z,97969.15
2018-06-14T20:39:56.625Z,97974.23
2018-06-14T20:42:25.626Z,97972.63
2018-06-14T20:44:54.405Z,97969.45
2018-06-14T20:47:23.482Z,97969.23
2018-06-14T20:49:52.275Z,97971.75
2018-06-14T20:52:21.143Z,97974.47
2018-06-14T20:54:50.030Z,97971.52
2018-06-14T20:57:19.083Z,97979.21
2018-06-14T20:59:48.155Z,97974.55
2018-06-14T21:02:19.108Z,97971.95
2018-06-14T21:04:49.334Z,97975.13
2018-06-14T21:07:19.434Z,97983.45
2018-06-14T21:09:49.017Z,97981.73
2018-06-14T21:12:17.950Z,97987.98
2018-06-14T21:14:47.428Z,97988.34
2018-06-14T21:17:16.251Z,97984.52
2018-06-14T21:19:45.220Z,97978.14
2018-06-14T21:22:14.365Z,97981.44
2018-06-14T21:24:43.454Z,97980.64
2018-06-14T21:27:12.430Z,97981.91
2018-06-14T21:29:41.514Z,97982.23
2018-06-14T21:32:12.543Z,97985.66
2018-06-14T21:34:41.502Z,97987.02
2018-06-14T21:37:10.642Z,97980.67
2018-06-14T21:39:39.995Z,97977.47
2018-06-14T21:42:09.031Z,97984.98
2018-06-14T21:44:37.845Z,97983.40
2018-06-14T21:47:06.814Z,97981.24
2018-06-14T21:49:35.652Z,97984.98
2018-06-14T21:52:04.773Z,97982.03
2018-06-14T21:54:33.591Z,97986.98
2018-06-14T21:57:02.585Z,97995.63
2018-06-14T21:59:31.566Z,97994.96
2018-06-14T22:02:00.586Z,97991.99
2018-06-14T22:04:29.401Z,97990.53
2018-06-14T22:06:58.330Z,97992.66
2018-06-14T22:09:27.407Z,97995.14
2018-06-14T22:11:56.318Z,97988.21
2018-06-14T22:14:25.359Z,97993.55
2018-06-14T22:16:54.201Z,97989.33
2018-06-14T22:19:23.136Z,97993.96
2018-06-14T22:21:52.206Z,97991.67
2018-06-14T22:24:21.178Z,97997.31
2018-06-14T22:26:50.286Z,98003.91
2018-06-14T22:29:19.217Z,98001.80
2018-06-14T22:31:48.242Z,98003.33
2018-06-14T22:34:28.189Z,97997.17
2018-06-14T22:36:57.518Z,97996.83
2018-06-14T22:39:26.921Z,97998.45
2018-06-14T22:41:55.838Z,97999.55
2018-06-14T22:44:25.132Z,97992.59
2018-06-14T22:46:54.110Z,97993.16
2018-06-14T22:49:23.242Z,97992.83
2018-06-14T22:53:02.346Z,97999.17
2018-06-14T22:55:31.340Z,98005.75
2018-06-14T22:58:00.329Z,98000.53
2018-06-14T23:01:50.964Z,97998.45
2018-06-14T23:04:25.259Z,98002.04
2018-06-14T23:06:54.488Z,98002.00
2018-06-14T23:10:35.957Z,98000.75
2018-06-14T23:13:05.452Z,97999.98
2018-06-14T23:15:34.291Z,97999.97
2018-06-14T23:18:03.396Z,97997.81
2018-06-14T23:20:33.453Z,97999.19
2018-06-14T23:23:03.285Z,98003.05
2018-06-14T23:25:32.753Z,98006.03
2018-06-14T23:28:01.597Z,98003.05
2018-06-14T23:30:30.490Z,98007.06
2018-06-14T23:32:59.555Z,97996.93
2018-06-14T23:35:28.454Z,98000.16
2018-06-14T23:37:57.425Z,97998.18
2018-06-14T23:40:26.451Z,97996.46
2018-06-14T23:42:55.426Z,98001.28
2018-06-14T23:45:24.533Z,98003.44
2018-06-14T23:47:53.350Z,97997.77
2018-06-14T23:50:22.404Z,98002.58
2018-06-14T23:52:51.253Z,97998.11
2018-06-14T23:55:19.976Z,98003.34
2018-06-14T23:57:48.993Z,98004.96
